Portada
METAR-TAF:

METAR-TAF

Aeropuertos :

Aeropuerto Internacional Arturo Napoleón Raymond Robinson

Scarborough, Tobago, Trinidad y Tobago

latitud: 11-09N, longitud: 060-51W, altitud: 8 m

Observación

El informe se hizo hace 21 minutos, a las 09:00 UTC
Viento 3 kt del este-noreste
Temperatura 26°C
Humedad 84%
Presión 1011 hPa
Visibilidad 10 km o más
Escasas nubes a una altura de 1600 ft

METAR: TTCP 170900Z 07003KT 9999 FEW016 26/23 Q1011 NOSIG

Hora: 05:21 (09:21 UTC)

Pronóstico

El informe se hizo hace 5 horas y 21 minutos, a las 04:00 UTC
Pronóstico válido del 17 a las 06 UTC al 18 a las 06 UTC
Viento 5 kt del este
Visibilidad 10 km o más
Escasas nubes a una altura de 1600 ft
Evolucionando progresivamente
del 17 a las 11 UTC al 17 a las 13 UTC
Viento 14 kt del este
Escasas nubes a una altura de 2000 ft

TAF: TTCP 170400Z 1706/1806 10005KT 9999 FEW016 BECMG 1711/1713 08014KT FEW020

Observaciones y pronósticos meteorológicos de más de 4000 aeropuertos (mensajes METAR y TAF).

Los puntos amarillos y rojos representan las estaciones disponibles.

Ponga el ratón en el punto deseado para ver el nombre de la estación.

Haga clic para ver las observaciones y los pronósticos meteorológicos.

Para cambiar el mapa : haga clic en los botones verdes con una cruz de color negro para hacer un zoom, en el botón verde con un guión para alejar o en las flechas verdes para mapas adyacentes.


METAR-TAF: